Time;durP1;ratioP1;P1;durP2;ratioP2;P2;SDS_P1;SDS_P2;PMS_P1;PMS_P2;Temp;Humidity;BMP_temperature;BMP_pressure;BME280_temperature;BME280_humidity;BME280_pressure;Samples;Min_cycle;Max_cycle;Signal;HPM_P1;HPM_P2
2021/03/14 00:00:11;;;;;;;4.45;1.10;;;6.60;95.40;;;;;;4974052;28;20046;-74
2021/03/14 00:02:37;;;;;;;4.32;1.58;;;6.60;95.40;;;;;;4973479;28;20031;-75
2021/03/14 00:05:04;;;;;;;1.15;0.77;;;6.50;95.40;;;;;;4973461;28;20690;-75
2021/03/14 00:07:30;;;;;;;1.27;0.60;;;6.50;95.40;;;;;;4974710;28;20038;-74
2021/03/14 00:09:56;;;;;;;1.60;0.98;;;6.60;95.40;;;;;;4973744;28;20366;-74
2021/03/14 00:12:21;;;;;;;1.08;0.98;;;6.50;95.40;;;;;;4974779;28;20038;-73
2021/03/14 00:14:47;;;;;;;0.80;0.55;;;6.50;95.40;;;;;;4974218;28;20118;-74
2021/03/14 00:17:13;;;;;;;0.70;0.70;;;6.50;95.40;;;;;;4974272;28;20042;-73
2021/03/14 00:19:38;;;;;;;0.88;0.60;;;6.50;95.40;;;;;;4974773;28;20026;-73
2021/03/14 00:22:04;;;;;;;4.78;1.33;;;6.50;95.40;;;;;;4973996;28;20110;-74
2021/03/14 00:24:30;;;;;;;1.30;0.70;;;6.50;95.40;;;;;;4989227;28;20118;-74
2021/03/14 00:26:55;;;;;;;2.83;0.90;;;6.50;95.40;;;;;;4973774;28;20469;-75
2021/03/14 00:29:21;;;;;;;1.70;0.85;;;6.50;95.40;;;;;;4973028;28;20027;-74
2021/03/14 00:31:47;;;;;;;1.33;0.75;;;6.60;95.40;;;;;;4973443;28;20034;-74
2021/03/14 00:34:13;;;;;;;0.93;0.70;;;6.60;95.20;;;;;;4974293;28;20083;-74
2021/03/14 00:36:38;;;;;;;1.17;0.90;;;6.60;95.20;;;;;;4988992;28;20023;-73
2021/03/14 00:39:04;;;;;;;2.03;1.23;;;6.60;95.20;;;;;;4971736;28;20106;-74
2021/03/14 00:41:30;;;;;;;1.58;0.82;;;6.60;95.10;;;;;;4972896;28;20121;-74
2021/03/14 00:43:55;;;;;;;1.00;0.63;;;6.60;95.10;;;;;;4973436;28;20422;-75
2021/03/14 00:46:21;;;;;;;8.10;1.10;;;6.60;95.10;;;;;;4973573;28;20023;-74
2021/03/14 00:48:47;;;;;;;2.63;1.33;;;6.60;95.10;;;;;;4973202;28;20503;-74
2021/03/14 00:51:12;;;;;;;1.80;0.93;;;6.60;95.10;;;;;;4988602;28;20468;-73
2021/03/14 00:53:38;;;;;;;6.88;0.90;;;6.60;95.00;;;;;;4973523;28;20031;-73
2021/03/14 00:56:04;;;;;;;4.55;1.85;;;6.60;95.00;;;;;;4972995;28;20454;-75
2021/03/14 00:58:30;;;;;;;1.05;0.75;;;6.60;95.00;;;;;;4988663;28;20015;-73
2021/03/14 01:00:55;;;;;;;2.05;1.00;;;6.70;95.00;;;;;;4973070;28;20082;-73
2021/03/14 01:03:21;;;;;;;1.58;0.90;;;6.70;94.90;;;;;;4988467;28;20461;-72
2021/03/14 01:05:47;;;;;;;1.75;1.25;;;6.70;94.90;;;;;;4973427;28;20050;-73
2021/03/14 01:08:17;;;;;;;1.67;0.90;;;6.80;94.80;;;;;;4973530;28;20027;-73
2021/03/14 01:10:43;;;;;;;3.95;0.80;;;6.80;94.90;;;;;;4973339;28;20094;-74
2021/03/14 01:13:08;;;;;;;4.03;0.90;;;6.90;94.80;;;;;;4971757;28;20031;-74
2021/03/14 01:15:34;;;;;;;5.63;1.17;;;6.90;94.80;;;;;;4973407;28;20097;-73
2021/03/14 01:17:59;;;;;;;0.85;0.50;;;6.90;94.80;;;;;;4972471;28;20023;-75
2021/03/14 01:20:25;;;;;;;3.17;1.10;;;6.90;94.80;;;;;;4988263;28;20037;-76
2021/03/14 01:22:51;;;;;;;1.40;0.85;;;6.90;94.80;;;;;;4972805;28;20495;-75
2021/03/14 01:25:17;;;;;;;0.88;0.82;;;6.90;94.80;;;;;;4973335;28;20023;-75
2021/03/14 01:27:45;;;;;;;1.88;1.05;;;6.90;94.70;;;;;;4973229;28;20030;-75
2021/03/14 01:30:15;;;;;;;4.00;1.00;;;6.90;94.70;;;;;;4972359;28;20388;-74
2021/03/14 01:32:41;;;;;;;0.75;0.63;;;7.00;94.70;;;;;;4971834;28;20107;-74
2021/03/14 01:35:08;;;;;;;2.53;0.77;;;7.00;94.60;;;;;;4972305;28;20033;-74
2021/03/14 01:37:33;;;;;;;0.80;0.65;;;7.00;94.60;;;;;;4971759;28;20549;-75
2021/03/14 01:39:59;;;;;;;1.30;0.80;;;7.00;94.60;;;;;;4972263;28;20026;-75
2021/03/14 01:42:29;;;;;;;2.25;0.80;;;7.00;94.70;;;;;;4973266;28;20043;-73
2021/03/14 01:44:55;;;;;;;2.95;1.10;;;7.00;94.60;;;;;;4970967;28;20030;-73
2021/03/14 01:47:37;;;;;;;1.25;0.82;;;7.00;94.60;;;;;;4972960;28;20029;-73
2021/03/14 01:50:07;;;;;;;;;;;7.00;94.70;;;;;;4972793;28;20022;-73
2021/03/14 01:52:33;;;;;;;2.60;0.85;;;6.90;94.60;;;;;;4972849;28;19910;-76
2021/03/14 01:54:59;;;;;;;2.42;0.88;;;7.00;94.70;;;;;;4972149;28;20464;-75
2021/03/14 01:57:26;;;;;;;14.88;1.75;;;7.00;94.70;;;;;;4971433;28;20031;-72
2021/03/14 01:59:52;;;;;;;2.25;1.00;;;7.00;94.70;;;;;;4970992;28;20358;-73
2021/03/14 02:02:18;;;;;;;0.70;0.70;;;7.00;94.60;;;;;;4971482;28;20034;-74
2021/03/14 02:04:43;;;;;;;1.27;0.85;;;7.10;94.60;;;;;;4972658;28;20030;-73
2021/03/14 02:07:09;;;;;;;2.45;0.90;;;7.10;94.60;;;;;;4972037;28;20034;-74
2021/03/14 02:09:36;;;;;;;1.30;0.88;;;7.10;94.60;;;;;;4971564;28;20023;-73
2021/03/14 02:12:04;;;;;;;0.95;0.80;;;7.10;94.60;;;;;;4972031;28;20085;-74
2021/03/14 02:14:30;;;;;;;4.65;1.00;;;7.10;94.60;;;;;;4972524;28;20046;-74
2021/03/14 02:16:58;;;;;;;3.53;1.30;;;7.00;94.60;;;;;;4972260;28;20062;-74
2021/03/14 02:19:33;;;;;;;2.35;1.05;;;7.00;94.50;;;;;;4973126;28;20035;-75
2021/03/14 02:22:01;;;;;;;1.67;1.17;;;7.10;94.60;;;;;;4971777;28;20098;-74
2021/03/14 02:24:33;;;;;;;1.20;1.02;;;7.00;94.50;;;;;;4989893;28;20030;-74
2021/03/14 02:27:03;;;;;;;2.67;0.80;;;7.10;94.50;;;;;;4975727;28;20023;-74
2021/03/14 02:29:30;;;;;;;1.05;0.60;;;7.10;94.50;;;;;;4976736;28;20073;-74
2021/03/14 02:31:57;;;;;;;2.75;1.10;;;7.10;94.50;;;;;;4975728;28;20086;-75
2021/03/14 02:34:58;;;;;;;1.10;0.77;;;7.10;94.40;;;;;;4976377;28;20058;-74
2021/03/14 02:37:24;;;;;;;3.60;1.10;;;7.10;94.40;;;;;;4968782;28;20062;-74
2021/03/14 02:39:53;;;;;;;1.20;0.80;;;7.10;94.50;;;;;;4976156;28;20028;-75
2021/03/14 02:42:19;;;;;;;1.13;0.90;;;7.10;94.40;;;;;;4975520;28;20030;-75
2021/03/14 02:44:50;;;;;;;1.67;1.58;;;7.10;94.50;;;;;;4976046;28;20031;-74
2021/03/14 02:47:19;;;;;;;2.93;0.80;;;7.00;94.40;;;;;;4975501;28;20061;-73
2021/03/14 02:49:45;;;;;;;1.27;0.82;;;7.00;94.20;;;;;;4990846;28;20046;-73
2021/03/14 02:52:11;;;;;;;5.70;1.10;;;7.00;94.20;;;;;;4975310;28;20398;-73
2021/03/14 02:54:39;;;;;;;1.48;0.88;;;7.00;94.30;;;;;;4975978;28;20043;-73
2021/03/14 02:57:06;;;;;;;0.60;0.60;;;7.00;94.20;;;;;;4990208;28;20022;-73
2021/03/14 02:59:32;;;;;;;0.50;0.50;;;7.00;94.20;;;;;;4975671;28;20046;-76
2021/03/14 03:01:58;;;;;;;1.40;0.90;;;7.00;94.30;;;;;;4975315;28;20109;-75
2021/03/14 03:04:25;;;;;;;1.83;1.10;;;7.00;94.30;;;;;;4974167;28;20161;-74
2021/03/14 03:06:54;;;;;;;0.70;0.70;;;7.00;94.10;;;;;;4975692;28;20022;-74
2021/03/14 03:09:20;;;;;;;1.70;0.70;;;7.00;94.20;;;;;;4973752;28;20110;-74
2021/03/14 03:11:49;;;;;;;9.90;1.00;;;7.00;94.20;;;;;;4975711;28;20476;-75
2021/03/14 03:14:17;;;;;;;1.70;1.00;;;7.00;94.10;;;;;;4974792;28;20392;-74
2021/03/14 03:16:47;;;;;;;1.42;0.88;;;7.00;94.20;;;;;;4975349;28;20106;-76
2021/03/14 03:19:16;;;;;;;3.35;0.70;;;7.00;94.10;;;;;;4990035;28;20169;-75
2021/03/14 03:21:43;;;;;;;3.03;0.95;;;6.90;94.00;;;;;;4975595;28;20027;-74
2021/03/14 03:24:10;;;;;;;4.85;1.58;;;6.90;94.10;;;;;;4974964;28;20103;-75
2021/03/14 03:26:41;;;;;;;2.33;1.13;;;6.90;94.10;;;;;;4975764;28;20027;-73
2021/03/14 03:29:08;;;;;;;0.75;0.50;;;6.90;94.00;;;;;;4957747;28;20109;-75
2021/03/14 03:31:34;;;;;;;1.48;0.75;;;6.80;93.90;;;;;;4975406;28;20019;-76
2021/03/14 03:34:00;;;;;;;2.20;1.17;;;6.80;93.90;;;;;;4974507;28;20415;-75
2021/03/14 03:36:26;;;;;;;3.53;0.90;;;6.80;94.00;;;;;;4974770;28;20014;-74
2021/03/14 03:38:52;;;;;;;2.72;0.88;;;6.80;93.80;;;;;;4975495;28;20034;-74
2021/03/14 03:41:17;;;;;;;3.42;1.70;;;6.80;93.80;;;;;;4974972;28;20083;-75
2021/03/14 03:43:44;;;;;;;0.73;0.73;;;6.80;93.80;;;;;;4974946;28;20023;-76
2021/03/14 03:46:12;;;;;;;2.38;1.08;;;6.80;94.00;;;;;;4973188;28;20444;-74
2021/03/14 03:48:50;;;;;;;1.73;0.60;;;6.80;94.00;;;;;;4990038;28;20023;-74
2021/03/14 03:51:21;;;;;;;1.40;0.73;;;6.80;94.20;;;;;;4974407;28;20101;-74
2021/03/14 03:53:49;;;;;;;9.45;1.13;;;6.80;94.00;;;;;;4975204;28;20122;-74
2021/03/14 03:56:15;;;;;;;1.10;0.75;;;6.80;94.00;;;;;;4973980;28;20485;-74
2021/03/14 03:58:44;;;;;;;2.05;0.70;;;6.80;94.00;;;;;;4974614;28;20027;-74
2021/03/14 04:01:11;;;;;;;0.40;0.40;;;6.80;94.10;;;;;;4974205;28;20027;-74
2021/03/14 04:03:39;;;;;;;0.57;0.40;;;6.80;94.10;;;;;;4974546;28;20023;-74
2021/03/14 04:06:05;;;;;;;2.30;0.55;;;6.80;94.20;;;;;;4974217;28;20053;-74
2021/03/14 04:08:33;;;;;;;0.77;0.50;;;6.90;94.20;;;;;;4974669;28;20117;-74
2021/03/14 04:11:00;;;;;;;0.68;0.60;;;6.90;94.10;;;;;;4973025;28;20051;-74
2021/03/14 04:13:27;;;;;;;0.40;0.40;;;6.90;94.10;;;;;;4974530;28;20101;-76
2021/03/14 04:15:53;;;;;;;1.58;0.60;;;6.90;94.10;;;;;;4974766;28;20073;-73
2021/03/14 04:18:21;;;;;;;0.52;0.52;;;6.90;94.00;;;;;;4988858;28;20113;-74
2021/03/14 04:20:48;;;;;;;0.82;0.82;;;6.90;94.10;;;;;;4974323;28;20452;-74
2021/03/14 04:23:22;;;;;;;3.78;0.90;;;6.80;94.10;;;;;;4973728;28;20111;-74
2021/03/14 04:25:53;;;;;;;1.23;0.80;;;6.90;94.10;;;;;;4974535;28;20081;-74
2021/03/14 04:28:20;;;;;;;;;;;6.90;94.20;;;;;;4974135;28;20054;-74
2021/03/14 04:30:47;;;;;;;1.40;0.60;;;6.80;94.00;;;;;;4974324;28;19969;-74
2021/03/14 04:33:14;;;;;;;4.20;0.90;;;6.80;94.10;;;;;;4973544;28;20038;-74
2021/03/14 04:35:40;;;;;;;2.50;0.95;;;6.90;94.10;;;;;;4972528;28;20019;-74
2021/03/14 04:38:07;;;;;;;1.65;1.17;;;6.80;94.10;;;;;;4972300;28;20026;-75
2021/03/14 04:40:34;;;;;;;1.75;0.80;;;6.80;94.10;;;;;;4973679;28;20114;-75
2021/03/14 04:43:01;;;;;;;0.55;0.50;;;6.80;94.00;;;;;;4973980;28;20035;-74
2021/03/14 04:45:27;;;;;;;1.42;0.80;;;6.80;94.10;;;;;;4973365;28;20113;-74
2021/03/14 04:47:53;;;;;;;2.42;0.70;;;6.90;93.90;;;;;;4974017;28;20110;-75
2021/03/14 04:50:22;;;;;;;2.83;1.00;;;6.90;94.00;;;;;;4973081;28;20023;-73
2021/03/14 04:52:51;;;;;;;1.92;0.60;;;6.90;93.90;;;;;;4973605;28;20050;-74
2021/03/14 04:55:17;;;;;;;1.95;0.70;;;6.90;93.80;;;;;;4988112;28;20331;-74
2021/03/14 04:57:44;;;;;;;1.15;0.70;;;6.90;93.80;;;;;;4973796;28;20030;-75
2021/03/14 05:00:12;;;;;;;2.47;0.98;;;7.00;93.60;;;;;;4973325;28;20027;-74
2021/03/14 05:02:42;;;;;;;2.67;0.80;;;6.90;93.60;;;;;;4972570;28;20046;-74
2021/03/14 05:05:09;;;;;;;4.35;0.98;;;6.90;93.60;;;;;;4987888;28;20023;-74
2021/03/14 05:07:36;;;;;;;1.05;0.70;;;6.90;93.60;;;;;;4972336;28;20388;-75
2021/03/14 05:10:06;;;;;;;2.50;0.73;;;6.90;93.60;;;;;;4973521;28;20027;-75
2021/03/14 05:12:32;;;;;;;3.42;1.00;;;6.90;93.50;;;;;;4973697;28;20034;-75
2021/03/14 05:14:58;;;;;;;1.45;0.68;;;6.90;93.60;;;;;;4988449;28;20022;-74
2021/03/14 05:17:24;;;;;;;6.82;0.80;;;6.90;93.60;;;;;;4971846;28;20096;-74
2021/03/14 05:19:50;;;;;;;2.13;1.15;;;6.90;93.50;;;;;;4973588;28;20031;-74
2021/03/14 05:22:19;;;;;;;1.67;0.73;;;6.90;93.50;;;;;;4972617;28;20041;-73
2021/03/14 05:24:47;;;;;;;1.88;0.82;;;6.90;93.50;;;;;;4973685;28;20504;-74
2021/03/14 05:27:13;;;;;;;1.17;0.93;;;6.90;93.40;;;;;;4972408;28;20058;-74
2021/03/14 05:29:39;;;;;;;1.77;0.70;;;6.90;93.30;;;;;;4973362;28;20034;-74
2021/03/14 05:32:05;;;;;;;2.95;1.50;;;6.90;93.30;;;;;;4972901;28;20481;-73
2021/03/14 05:34:31;;;;;;;1.63;0.98;;;6.90;93.00;;;;;;4972441;28;20019;-74
2021/03/14 05:36:57;;;;;;;4.10;1.67;;;6.90;92.80;;;;;;4972989;28;20506;-74
2021/03/14 05:39:22;;;;;;;3.63;1.08;;;6.80;92.60;;;;;;4972648;28;20529;-74
2021/03/14 05:41:48;;;;;;;1.73;1.00;;;6.70;92.80;;;;;;4973231;28;20035;-74
2021/03/14 05:44:14;;;;;;;1.73;1.00;;;6.70;93.00;;;;;;4972366;28;20041;-74
2021/03/14 05:46:40;;;;;;;3.05;2.08;;;6.60;93.00;;;;;;4973132;28;20362;-74
2021/03/14 05:49:07;;;;;;;2.17;1.25;;;6.60;92.90;;;;;;4971798;28;20034;-74
2021/03/14 05:51:47;;;;;;;4.75;1.20;;;6.50;93.00;;;;;;4971714;28;20058;-74
2021/03/14 05:54:16;;;;;;;2.03;1.08;;;6.50;93.10;;;;;;4987528;28;20022;-74
2021/03/14 05:56:47;;;;;;;2.63;1.10;;;6.50;93.00;;;;;;4972957;28;20469;-73
2021/03/14 05:59:14;;;;;;;2.55;1.05;;;6.50;93.00;;;;;;4977139;28;20030;-73
2021/03/14 06:01:47;;;;;;;1.75;1.10;;;6.50;93.10;;;;;;4979530;28;20085;-74
2021/03/14 06:04:14;;;;;;;1.65;1.13;;;6.60;93.20;;;;;;4978835;28;20025;-74
2021/03/14 06:06:40;;;;;;;1.27;0.80;;;6.60;93.10;;;;;;4979142;28;20027;-74
2021/03/14 06:09:06;;;;;;;2.35;1.25;;;6.70;93.10;;;;;;4979308;28;20030;-74
2021/03/14 06:11:32;;;;;;;2.38;1.20;;;6.60;93.00;;;;;;4978422;28;20448;-75
2021/03/14 06:13:59;;;;;;;2.35;1.10;;;6.60;93.00;;;;;;4978016;28;20054;-75
2021/03/14 06:16:25;;;;;;;2.10;0.88;;;6.70;93.10;;;;;;4978902;28;20022;-75
2021/03/14 06:18:52;;;;;;;4.15;1.67;;;6.60;93.00;;;;;;4978089;28;20023;-74
2021/03/14 06:21:29;;;;;;;4.60;1.75;;;6.70;92.60;;;;;;4978530;28;20429;-75
2021/03/14 06:23:57;;;;;;;2.60;1.30;;;6.60;92.80;;;;;;4979375;28;20062;-75
2021/03/14 06:26:56;;;;;;;3.80;2.00;;;6.60;92.90;;;;;;4978885;28;20072;-74
2021/03/14 06:29:23;;;;;;;3.08;1.40;;;6.60;92.90;;;;;;4956786;28;20125;-74
2021/03/14 06:31:52;;;;;;;1.85;1.40;;;6.60;92.80;;;;;;4979486;28;20085;-74
2021/03/14 06:34:36;;;;;;;2.30;1.40;;;6.60;92.80;;;;;;4978351;28;20031;-75
2021/03/14 06:37:07;;;;;;;2.33;1.13;;;6.60;92.90;;;;;;4979397;28;20400;-73
2021/03/14 06:39:37;;;;;;;;;;;6.60;92.90;;;;;;4984726;28;20034;-74
2021/03/14 06:42:03;;;;;;;2.55;1.30;;;6.60;92.90;;;;;;4994025;28;19993;-74
2021/03/14 06:44:35;;;;;;;1.98;1.08;;;6.70;92.90;;;;;;4992333;28;20527;-74
2021/03/14 06:47:02;;;;;;;1.73;1.08;;;6.70;92.80;;;;;;4992248;28;20098;-75
2021/03/14 06:49:29;;;;;;;1.67;0.73;;;6.80;92.80;;;;;;4997320;28;20041;-74
2021/03/14 06:51:57;;;;;;;2.15;1.08;;;6.80;92.80;;;;;;4993777;28;20035;-74
2021/03/14 06:54:23;;;;;;;1.90;0.95;;;6.80;92.60;;;;;;4978466;28;20031;-74
2021/03/14 06:57:17;;;;;;;1.27;0.90;;;6.90;92.70;;;;;;4978965;28;20372;-74
2021/03/14 06:59:45;;;;;;;1.60;0.88;;;6.90;92.60;;;;;;4982731;28;20540;-74
2021/03/14 07:02:13;;;;;;;1.38;0.93;;;6.90;92.70;;;;;;4978813;28;20030;-74
2021/03/14 07:04:48;;;;;;;3.10;1.33;;;6.90;92.60;;;;;;4978486;28;20031;-74
2021/03/14 07:07:16;;;;;;;1.75;1.38;;;6.90;92.40;;;;;;4987948;28;20022;-75
2021/03/14 07:09:43;;;;;;;2.67;1.40;;;6.90;92.50;;;;;;4983382;28;20034;-75
2021/03/14 07:12:25;;;;;;;3.38;1.95;;;6.90;92.60;;;;;;4974312;28;20093;-74
2021/03/14 07:14:51;;;;;;;2.38;1.25;;;6.90;92.50;;;;;;4975742;28;20026;-74
2021/03/14 07:17:30;;;;;;;4.72;1.38;;;7.00;92.50;;;;;;4975180;28;20027;-74
2021/03/14 07:19:57;;;;;;;2.28;1.08;;;7.00;92.50;;;;;;4983357;28;20098;-74
2021/03/14 07:22:23;;;;;;;3.67;1.27;;;7.10;92.50;;;;;;5001137;28;20050;-74
2021/03/14 07:24:52;;;;;;;2.10;1.05;;;7.10;92.40;;;;;;4995052;28;20030;-73
2021/03/14 07:27:22;;;;;;;5.07;1.50;;;7.20;92.40;;;;;;4995441;28;20160;-74
2021/03/14 07:29:48;;;;;;;2.45;1.33;;;7.20;92.40;;;;;;4996040;28;20029;-75
2021/03/14 07:32:14;;;;;;;4.60;2.13;;;7.20;92.40;;;;;;4989893;28;20028;-73
2021/03/14 07:34:41;;;;;;;3.95;1.15;;;7.20;92.40;;;;;;4985432;28;20026;-74
2021/03/14 07:37:06;;;;;;;2.15;1.23;;;7.20;92.50;;;;;;4984084;28;20026;-75
2021/03/14 07:39:32;;;;;;;6.72;2.53;;;7.20;92.50;;;;;;4978737;28;20102;-74
2021/03/14 07:42:00;;;;;;;3.30;1.70;;;7.20;92.30;;;;;;4974030;28;20437;-74
2021/03/14 07:44:26;;;;;;;4.72;1.98;;;7.20;92.60;;;;;;4974572;28;20384;-74
2021/03/14 07:46:53;;;;;;;5.00;1.70;;;7.20;92.30;;;;;;4975385;28;20027;-74
2021/03/14 07:49:26;;;;;;;5.50;2.15;;;7.30;92.40;;;;;;4991275;28;20022;-74
2021/03/14 07:52:09;;;;;;;2.80;1.33;;;7.30;92.40;;;;;;4993192;28;20477;-74
2021/03/14 07:54:46;;;;;;;4.88;2.38;;;7.40;92.40;;;;;;4993708;28;20026;-75
2021/03/14 07:57:13;;;;;;;3.67;1.80;;;7.40;92.40;;;;;;4994307;28;20023;-75
2021/03/14 07:59:42;;;;;;;5.18;2.25;;;7.40;92.40;;;;;;4991747;28;20081;-74
2021/03/14 08:02:16;;;;;;;5.78;3.05;;;7.50;92.30;;;;;;4993654;28;20072;-75
2021/03/14 08:04:56;;;;;;;6.90;3.13;;;7.60;92.20;;;;;;4991447;28;20113;-76
2021/03/14 08:07:34;;;;;;;7.97;4.20;;;7.50;92.10;;;;;;4988591;28;20038;-74
2021/03/14 08:10:00;;;;;;;11.02;4.85;;;7.60;92.10;;;;;;4974050;28;20453;-73
2021/03/14 08:12:41;;;;;;;8.07;3.25;;;7.60;92.10;;;;;;4974359;28;20043;-74
2021/03/14 08:15:25;;;;;;;7.82;3.13;;;7.70;92.10;;;;;;4974630;28;20019;-74
2021/03/14 08:17:54;;;;;;;6.43;3.35;;;7.70;92.00;;;;;;4973293;28;20461;-74
2021/03/14 08:20:44;;;;;;;8.52;3.78;;;7.80;92.00;;;;;;4972512;28;20055;-74
2021/03/14 08:23:12;;;;;;;8.23;3.40;;;7.80;91.90;;;;;;4974343;28;20023;-74
2021/03/14 08:25:42;;;;;;;8.10;3.50;;;7.90;92.00;;;;;;4974685;28;20027;-75
2021/03/14 08:28:23;;;;;;;8.80;3.90;;;7.90;91.90;;;;;;4989107;28;20023;-75
2021/03/14 08:30:49;;;;;;;9.23;3.67;;;7.90;91.80;;;;;;4993808;28;20022;-75
2021/03/14 08:33:18;;;;;;;7.35;3.53;;;8.00;91.90;;;;;;4991810;28;20038;-74
2021/03/14 08:35:45;;;;;;;12.25;4.28;;;8.00;91.80;;;;;;4993058;28;20062;-74
2021/03/14 08:38:32;;;;;;;9.45;3.60;;;8.00;91.80;;;;;;4991573;28;20035;-75
2021/03/14 08:41:16;;;;;;;7.13;3.10;;;8.10;91.90;;;;;;4992290;28;20479;-75
2021/03/14 08:43:43;;;;;;;8.20;3.35;;;8.10;91.80;;;;;;5007967;28;20030;-74
2021/03/14 08:46:09;;;;;;;9.80;3.72;;;8.20;91.80;;;;;;4986621;28;20487;-75
2021/03/14 08:48:36;;;;;;;10.45;3.45;;;8.20;91.70;;;;;;4973106;28;20026;-74
2021/03/14 08:51:04;;;;;;;7.85;2.97;;;8.30;91.60;;;;;;4974469;28;20019;-75
2021/03/14 08:53:31;;;;;;;5.85;2.67;;;8.30;91.60;;;;;;4973281;28;20031;-75
2021/03/14 08:55:57;;;;;;;7.53;3.78;;;8.40;91.60;;;;;;4972523;28;20035;-74
2021/03/14 08:58:23;;;;;;;10.15;3.67;;;8.50;91.50;;;;;;4973377;28;20095;-74
2021/03/14 09:01:22;;;;;;;10.38;3.50;;;8.50;91.50;;;;;;4979733;28;20031;-74
2021/03/14 09:03:48;;;;;;;9.43;3.42;;;8.60;91.20;;;;;;4936503;28;20137;-74
2021/03/14 09:06:24;;;;;;;11.77;3.40;;;8.50;91.30;;;;;;4991426;28;20030;-75
2021/03/14 09:08:56;;;;;;;9.38;3.28;;;8.60;91.40;;;;;;4981272;28;20031;-80
2021/03/14 09:11:37;;;;;;;7.60;2.78;;;8.60;91.40;;;;;;4995683;28;20125;-79
2021/03/14 09:14:26;;;;;;;7.90;3.70;;;8.70;91.40;;;;;;4998532;28;20034;-77
2021/03/14 09:16:54;;;;;;;7.32;3.35;;;8.70;91.40;;;;;;4972431;28;20030;-77
2021/03/14 09:19:30;;;;;;;5.57;2.80;;;8.70;91.40;;;;;;4976053;28;20031;-77
2021/03/14 09:21:59;;;;;;;14.02;3.75;;;8.70;91.40;;;;;;4972284;28;20034;-78
2021/03/14 09:24:25;;;;;;;8.77;3.38;;;8.70;91.30;;;;;;4973469;28;20081;-79
2021/03/14 09:27:18;;;;;;;14.30;3.47;;;8.70;91.30;;;;;;4988889;28;20042;-78
2021/03/14 09:29:54;;;;;;;7.80;2.90;;;8.70;91.30;;;;;;4990428;28;20378;-79
2021/03/14 09:32:34;;;;;;;9.77;2.95;;;8.70;91.40;;;;;;4992825;28;20031;-77
2021/03/14 09:35:16;;;;;;;8.07;2.88;;;8.70;91.40;;;;;;4992829;28;20030;-78
2021/03/14 09:37:42;;;;;;;7.03;2.35;;;8.80;91.30;;;;;;4992292;28;20025;-79
2021/03/14 09:40:14;;;;;;;10.02;3.10;;;8.90;91.20;;;;;;4993048;28;20077;-77
2021/03/14 09:42:41;;;;;;;6.78;2.38;;;8.90;91.10;;;;;;4991862;28;20030;-78
2021/03/14 09:45:12;;;;;;;9.40;3.22;;;8.90;91.10;;;;;;5007637;28;20080;-77
2021/03/14 09:47:58;;;;;;;8.85;3.00;;;8.90;91.10;;;;;;4992044;28;20030;-78
2021/03/14 09:50:24;;;;;;;8.45;2.20;;;8.90;91.10;;;;;;4986316;28;20151;-78
2021/03/14 09:52:50;;;;;;;8.25;3.03;;;8.90;90.90;;;;;;4996172;28;20074;-78
2021/03/14 09:55:23;;;;;;;8.70;2.03;;;9.00;90.90;;;;;;4978883;28;20030;-77
2021/03/14 09:57:50;;;;;;;10.48;3.50;;;9.10;90.90;;;;;;4970694;28;20041;-78
2021/03/14 10:00:21;;;;;;;7.43;2.60;;;9.10;90.70;;;;;;4973249;28;20030;-77
2021/03/14 10:02:48;;;;;;;8.30;2.92;;;9.20;90.50;;;;;;4972552;28;20027;-78
2021/03/14 10:05:13;;;;;;;5.47;2.78;;;9.30;90.40;;;;;;4973013;28;20119;-77
2021/03/14 10:07:39;;;;;;;6.53;2.55;;;9.20;90.40;;;;;;4972287;28;20469;-79
2021/03/14 10:10:09;;;;;;;7.15;2.75;;;9.30;90.30;;;;;;4980443;28;20101;-78
2021/03/14 10:12:35;;;;;;;7.20;3.40;;;9.30;90.30;;;;;;5006926;28;20033;-78
2021/03/14 10:15:02;;;;;;;8.25;2.25;;;9.30;90.10;;;;;;4992383;28;20407;-77
2021/03/14 10:17:27;;;;;;;6.88;2.47;;;9.40;90.20;;;;;;4974165;28;20035;-78
2021/03/14 10:19:53;;;;;;;4.20;2.05;;;9.40;90.00;;;;;;4987152;28;20031;-78
2021/03/14 10:22:32;;;;;;;5.53;3.00;;;9.50;89.90;;;;;;4981003;28;20108;-77
2021/03/14 10:24:58;;;;;;;4.43;1.95;;;9.60;90.00;;;;;;4991853;28;20439;-78
2021/03/14 10:27:24;;;;;;;7.55;2.45;;;9.60;90.10;;;;;;4995812;28;20057;-78
2021/03/14 10:30:01;;;;;;;5.13;1.95;;;9.70;89.60;;;;;;4975771;28;20450;-77
2021/03/14 10:32:29;;;;;;;5.68;2.42;;;9.70;89.40;;;;;;4973640;28;20033;-78
2021/03/14 10:35:03;;;;;;;6.95;2.13;;;9.70;88.50;;;;;;4977580;28;20173;-78
2021/03/14 10:37:33;;;;;;;6.43;2.47;;;9.60;88.90;;;;;;4971505;28;20445;-78
2021/03/14 10:40:04;;;;;;;5.82;2.10;;;9.50;88.80;;;;;;4972451;28;20535;-77
2021/03/14 10:42:40;;;;;;;;;;;9.40;89.00;;;;;;4988633;28;20361;-79
2021/03/14 10:45:12;;;;;;;3.25;1.35;;;9.30;89.00;;;;;;4974393;28;19913;-76
2021/03/14 10:47:38;;;;;;;2.00;1.23;;;9.30;89.60;;;;;;4974937;28;20030;-75
2021/03/14 10:50:16;;;;;;;2.58;1.17;;;9.20;89.50;;;;;;4990961;28;20022;-76
2021/03/14 10:52:42;;;;;;;2.85;1.10;;;9.10;90.20;;;;;;4975731;28;20039;-75
2021/03/14 10:55:30;;;;;;;3.55;1.52;;;9.00;90.20;;;;;;4976765;28;20027;-77
2021/03/14 10:58:17;;;;;;;4.07;1.23;;;8.90;90.40;;;;;;4991182;28;20488;-82
2021/03/14 11:00:51;;;;;;;4.97;1.40;;;8.90;90.50;;;;;;4993824;28;20022;-76
2021/03/14 11:03:37;;;;;;;3.33;1.50;;;8.90;90.60;;;;;;4991813;28;20101;-77
2021/03/14 11:06:24;;;;;;;3.38;1.52;;;9.00;90.50;;;;;;4989398;28;20572;-74
2021/03/14 11:09:05;;;;;;;5.05;1.58;;;9.10;90.40;;;;;;4983351;28;20106;-74
2021/03/14 11:11:45;;;;;;;3.95;2.22;;;9.20;90.50;;;;;;4992511;28;20068;-77
2021/03/14 11:14:37;;;;;;;3.90;1.90;;;9.20;90.50;;;;;;4992230;28;20034;-78
2021/03/14 11:17:18;;;;;;;6.32;1.67;;;9.20;90.40;;;;;;5007926;28;20026;-80
2021/03/14 11:19:47;;;;;;;3.28;1.60;;;9.20;90.40;;;;;;4981831;28;20139;-75
2021/03/14 11:22:14;;;;;;;5.47;2.08;;;9.30;90.30;;;;;;4984077;28;20400;-72
2021/03/14 11:24:41;;;;;;;3.55;1.30;;;9.40;90.10;;;;;;4990695;28;20544;-77
2021/03/14 11:27:07;;;;;;;2.42;1.13;;;9.50;89.80;;;;;;4974635;28;20027;-72
2021/03/14 11:29:33;;;;;;;2.85;1.40;;;9.50;89.70;;;;;;4975382;28;20019;-73
2021/03/14 11:31:59;;;;;;;4.53;1.33;;;9.70;89.00;;;;;;4974583;28;20034;-73
2021/03/14 11:34:24;;;;;;;2.47;1.15;;;9.80;88.90;;;;;;4974015;28;20057;-73
2021/03/14 11:36:50;;;;;;;5.45;1.40;;;10.00;88.90;;;;;;4974616;28;20029;-74
2021/03/14 11:39:16;;;;;;;3.03;1.40;;;10.20;88.80;;;;;;4975183;28;20472;-74
2021/03/14 11:41:42;;;;;;;2.38;1.05;;;10.40;88.20;;;;;;4974618;28;20110;-73
2021/03/14 11:44:08;;;;;;;3.08;1.25;;;10.50;87.70;;;;;;4975087;28;20031;-74
2021/03/14 11:46:34;;;;;;;1.33;1.00;;;10.50;87.30;;;;;;4975229;28;20026;-75
2021/03/14 11:48:59;;;;;;;4.55;1.50;;;10.60;87.50;;;;;;4975858;28;20542;-75
2021/03/14 11:51:25;;;;;;;2.17;1.30;;;10.60;87.50;;;;;;4989776;28;20412;-74
2021/03/14 11:53:51;;;;;;;2.97;1.25;;;10.60;87.60;;;;;;4993674;28;20022;-74
2021/03/14 11:56:17;;;;;;;1.50;1.15;;;10.60;87.80;;;;;;4993448;28;20496;-74
2021/03/14 11:58:42;;;;;;;2.00;1.23;;;10.60;87.60;;;;;;4993828;28;20022;-73
2021/03/14 12:01:08;;;;;;;2.55;1.23;;;10.60;88.00;;;;;;4992834;28;20030;-74
2021/03/14 12:03:35;;;;;;;3.60;1.20;;;10.60;87.20;;;;;;4992734;28;20353;-73
2021/03/14 12:06:01;;;;;;;2.78;0.95;;;10.80;87.40;;;;;;4993175;28;20069;-74
2021/03/14 12:08:27;;;;;;;3.78;1.52;;;10.90;86.30;;;;;;4992709;28;20022;-73
2021/03/14 12:10:53;;;;;;;5.47;1.65;;;11.00;85.40;;;;;;4993356;28;20042;-74
2021/03/14 12:13:19;;;;;;;4.30;1.10;;;11.00;84.40;;;;;;5009239;28;20093;-74
2021/03/14 12:15:45;;;;;;;2.50;1.20;;;11.00;82.80;;;;;;4993446;28;20477;-74
2021/03/14 12:18:11;;;;;;;2.83;2.30;;;11.00;83.40;;;;;;4992714;28;20384;-73
2021/03/14 12:20:38;;;;;;;1.20;0.73;;;11.00;82.60;;;;;;4993763;28;20023;-75
2021/03/14 12:23:04;;;;;;;1.92;1.20;;;10.90;82.80;;;;;;4992129;28;20041;-74
2021/03/14 12:25:30;;;;;;;2.53;1.20;;;10.90;82.90;;;;;;4993590;28;20026;-74
2021/03/14 12:27:55;;;;;;;1.67;0.80;;;10.80;81.80;;;;;;4992856;28;20500;-73
2021/03/14 12:30:21;;;;;;;3.13;1.10;;;10.70;81.40;;;;;;4993603;28;20101;-74
2021/03/14 12:32:47;;;;;;;4.07;1.17;;;10.60;82.00;;;;;;4992849;28;20306;-75
2021/03/14 12:35:13;;;;;;;2.20;1.25;;;10.60;82.60;;;;;;4993168;28;20027;-74
2021/03/14 12:37:38;;;;;;;2.05;1.08;;;10.60;82.40;;;;;;4993700;28;20038;-74
2021/03/14 12:40:06;;;;;;;2.65;1.00;;;10.50;81.00;;;;;;4992869;28;20439;-74
2021/03/14 12:42:32;;;;;;;1.50;0.90;;;10.50;82.30;;;;;;4993492;28;20034;-73
2021/03/14 12:44:58;;;;;;;3.28;1.15;;;10.50;82.10;;;;;;4991343;28;20029;-75
2021/03/14 12:47:24;;;;;;;1.25;0.80;;;10.60;82.10;;;;;;4993271;28;20070;-74
2021/03/14 12:49:52;;;;;;;3.70;1.13;;;10.70;81.70;;;;;;4992903;28;20054;-74
2021/03/14 12:52:18;;;;;;;2.35;1.13;;;10.60;80.30;;;;;;4991978;28;20125;-74
2021/03/14 12:54:43;;;;;;;1.67;1.17;;;10.60;78.60;;;;;;4992959;28;20113;-74
2021/03/14 12:57:09;;;;;;;1.92;0.80;;;10.60;79.60;;;;;;4993287;28;20534;-74
2021/03/14 12:59:35;;;;;;;1.00;0.70;;;10.70;79.60;;;;;;4993210;28;20022;-74
2021/03/14 13:02:00;;;;;;;6.65;1.25;;;10.90;79.40;;;;;;4991114;28;20472;-74
2021/03/14 13:04:27;;;;;;;2.60;0.85;;;10.90;79.30;;;;;;4993151;28;20026;-74